sensor_id;sensor_type;location;lat;lon;timestamp;P1;durP1;ratioP1;P2;durP2;ratioP2
4317;SDS011;2172;53.576;9.934;2023-02-28T00:01:20;4.17;;;1.90;;
4317;SDS011;2172;53.576;9.934;2023-02-28T00:03:47;6.50;;;2.50;;
4317;SDS011;2172;53.576;9.934;2023-02-28T00:06:15;7.60;;;2.90;;
4317;SDS011;2172;53.576;9.934;2023-02-28T00:08:43;4.73;;;2.30;;
4317;SDS011;2172;53.576;9.934;2023-02-28T00:11:11;5.13;;;2.40;;
4317;SDS011;2172;53.576;9.934;2023-02-28T00:13:41;3.37;;;2.43;;
4317;SDS011;2172;53.576;9.934;2023-02-28T00:16:14;6.40;;;2.83;;
4317;SDS011;2172;53.576;9.934;2023-02-28T00:18:42;6.83;;;3.17;;
4317;SDS011;2172;53.576;9.934;2023-02-28T00:21:10;4.73;;;2.37;;
4317;SDS011;2172;53.576;9.934;2023-02-28T00:23:38;3.97;;;2.70;;
4317;SDS011;2172;53.576;9.934;2023-02-28T00:26:05;4.53;;;2.63;;
4317;SDS011;2172;53.576;9.934;2023-02-28T00:28:33;4.80;;;2.50;;
4317;SDS011;2172;53.576;9.934;2023-02-28T00:31:00;8.23;;;2.50;;
4317;SDS011;2172;53.576;9.934;2023-02-28T00:33:29;4.40;;;2.83;;
4317;SDS011;2172;53.576;9.934;2023-02-28T00:39:45;5.83;;;2.97;;
4317;SDS011;2172;53.576;9.934;2023-02-28T00:42:17;6.30;;;3.13;;
4317;SDS011;2172;53.576;9.934;2023-02-28T00:44:46;2.70;;;2.30;;
4317;SDS011;2172;53.576;9.934;2023-02-28T00:47:14;5.70;;;3.47;;
4317;SDS011;2172;53.576;9.934;2023-02-28T00:49:43;5.07;;;3.07;;
4317;SDS011;2172;53.576;9.934;2023-02-28T00:52:10;5.70;;;2.67;;
4317;SDS011;2172;53.576;9.934;2023-02-28T00:54:38;3.50;;;2.53;;
4317;SDS011;2172;53.576;9.934;2023-02-28T00:57:06;4.30;;;3.80;;
4317;SDS011;2172;53.576;9.934;2023-02-28T00:59:34;4.17;;;2.53;;
4317;SDS011;2172;53.576;9.934;2023-02-28T01:02:01;6.47;;;2.47;;
4317;SDS011;2172;53.576;9.934;2023-02-28T01:04:29;4.27;;;3.17;;
4317;SDS011;2172;53.576;9.934;2023-02-28T01:07:01;5.13;;;2.77;;
4317;SDS011;2172;53.576;9.934;2023-02-28T01:09:29;4.17;;;3.00;;
4317;SDS011;2172;53.576;9.934;2023-02-28T01:11:57;3.77;;;2.63;;
4317;SDS011;2172;53.576;9.934;2023-02-28T01:14:24;3.97;;;2.90;;
4317;SDS011;2172;53.576;9.934;2023-02-28T01:16:52;4.10;;;2.70;;
4317;SDS011;2172;53.576;9.934;2023-02-28T01:19:20;4.97;;;2.90;;
4317;SDS011;2172;53.576;9.934;2023-02-28T01:21:47;6.20;;;2.60;;
4317;SDS011;2172;53.576;9.934;2023-02-28T01:24:16;8.57;;;2.73;;
4317;SDS011;2172;53.576;9.934;2023-02-28T01:26:44;3.97;;;2.63;;
4317;SDS011;2172;53.576;9.934;2023-02-28T01:29:11;5.43;;;2.80;;
4317;SDS011;2172;53.576;9.934;2023-02-28T01:31:39;4.43;;;2.70;;
4317;SDS011;2172;53.576;9.934;2023-02-28T01:34:07;4.93;;;2.30;;
4317;SDS011;2172;53.576;9.934;2023-02-28T01:36:34;5.90;;;2.80;;
4317;SDS011;2172;53.576;9.934;2023-02-28T01:39:02;6.90;;;2.97;;
4317;SDS011;2172;53.576;9.934;2023-02-28T01:41:32;5.90;;;2.83;;
4317;SDS011;2172;53.576;9.934;2023-02-28T01:44:02;3.07;;;2.40;;
4317;SDS011;2172;53.576;9.934;2023-02-28T01:46:31;4.40;;;2.73;;
4317;SDS011;2172;53.576;9.934;2023-02-28T01:49:02;3.67;;;2.77;;
4317;SDS011;2172;53.576;9.934;2023-02-28T01:51:33;6.40;;;2.90;;
4317;SDS011;2172;53.576;9.934;2023-02-28T01:54:05;10.10;;;3.17;;
4317;SDS011;2172;53.576;9.934;2023-02-28T01:56:41;3.73;;;2.70;;
4317;SDS011;2172;53.576;9.934;2023-02-28T01:59:12;8.10;;;3.00;;
4317;SDS011;2172;53.576;9.934;2023-02-28T02:01:41;6.33;;;2.90;;
4317;SDS011;2172;53.576;9.934;2023-02-28T02:04:08;5.30;;;3.80;;
4317;SDS011;2172;53.576;9.934;2023-02-28T02:06:37;4.63;;;3.00;;
4317;SDS011;2172;53.576;9.934;2023-02-28T02:09:09;5.37;;;3.27;;
4317;SDS011;2172;53.576;9.934;2023-02-28T02:11:36;9.43;;;4.40;;
4317;SDS011;2172;53.576;9.934;2023-02-28T02:14:22;5.07;;;2.80;;
4317;SDS011;2172;53.576;9.934;2023-02-28T02:17:09;6.50;;;3.50;;
4317;SDS011;2172;53.576;9.934;2023-02-28T02:25:34;5.30;;;3.20;;
4317;SDS011;2172;53.576;9.934;2023-02-28T02:28:15;6.57;;;3.27;;
4317;SDS011;2172;53.576;9.934;2023-02-28T02:31:09;7.50;;;4.10;;
4317;SDS011;2172;53.576;9.934;2023-02-28T02:37:00;8.03;;;4.50;;
4317;SDS011;2172;53.576;9.934;2023-02-28T02:39:36;12.03;;;4.73;;
4317;SDS011;2172;53.576;9.934;2023-02-28T02:42:13;8.50;;;5.23;;
4317;SDS011;2172;53.576;9.934;2023-02-28T02:44:46;9.93;;;5.80;;
4317;SDS011;2172;53.576;9.934;2023-02-28T02:47:18;14.70;;;7.00;;
4317;SDS011;2172;53.576;9.934;2023-02-28T02:49:48;12.57;;;7.00;;
4317;SDS011;2172;53.576;9.934;2023-02-28T02:52:21;16.70;;;8.77;;
4317;SDS011;2172;53.576;9.934;2023-02-28T02:54:52;20.53;;;10.37;;
4317;SDS011;2172;53.576;9.934;2023-02-28T02:57:23;19.40;;;10.33;;
4317;SDS011;2172;53.576;9.934;2023-02-28T02:59:52;16.97;;;9.90;;
4317;SDS011;2172;53.576;9.934;2023-02-28T03:02:22;23.53;;;13.17;;
4317;SDS011;2172;53.576;9.934;2023-02-28T03:04:51;22.53;;;11.60;;
4317;SDS011;2172;53.576;9.934;2023-02-28T03:07:28;22.57;;;12.43;;
4317;SDS011;2172;53.576;9.934;2023-02-28T03:09:56;18.03;;;9.93;;
4317;SDS011;2172;53.576;9.934;2023-02-28T03:12:26;16.07;;;10.03;;
4317;SDS011;2172;53.576;9.934;2023-02-28T03:15:01;22.07;;;12.30;;
4317;SDS011;2172;53.576;9.934;2023-02-28T03:17:41;20.47;;;12.80;;
4317;SDS011;2172;53.576;9.934;2023-02-28T03:20:21;17.33;;;10.27;;
4317;SDS011;2172;53.576;9.934;2023-02-28T03:23:00;26.27;;;14.57;;
4317;SDS011;2172;53.576;9.934;2023-02-28T03:25:32;25.70;;;15.03;;
4317;SDS011;2172;53.576;9.934;2023-02-28T03:28:04;42.53;;;22.60;;
4317;SDS011;2172;53.576;9.934;2023-02-28T03:30:36;59.53;;;28.37;;
4317;SDS011;2172;53.576;9.934;2023-02-28T03:33:08;55.47;;;27.60;;
4317;SDS011;2172;53.576;9.934;2023-02-28T03:35:38;63.50;;;31.43;;
4317;SDS011;2172;53.576;9.934;2023-02-28T03:38:11;76.57;;;33.60;;
4317;SDS011;2172;53.576;9.934;2023-02-28T03:40:41;59.23;;;28.50;;
4317;SDS011;2172;53.576;9.934;2023-02-28T03:43:12;52.27;;;24.30;;
4317;SDS011;2172;53.576;9.934;2023-02-28T03:45:44;45.50;;;24.33;;
4317;SDS011;2172;53.576;9.934;2023-02-28T03:48:13;43.47;;;22.90;;
4317;SDS011;2172;53.576;9.934;2023-02-28T03:50:43;34.40;;;18.40;;
4317;SDS011;2172;53.576;9.934;2023-02-28T03:53:14;31.00;;;16.80;;
4317;SDS011;2172;53.576;9.934;2023-02-28T03:55:45;30.00;;;16.40;;
4317;SDS011;2172;53.576;9.934;2023-02-28T03:58:15;24.93;;;13.20;;
4317;SDS011;2172;53.576;9.934;2023-02-28T04:00:51;25.03;;;13.90;;
4317;SDS011;2172;53.576;9.934;2023-02-28T04:03:21;22.23;;;13.30;;
4317;SDS011;2172;53.576;9.934;2023-02-28T04:05:50;29.20;;;15.50;;
4317;SDS011;2172;53.576;9.934;2023-02-28T04:08:20;34.97;;;16.20;;
4317;SDS011;2172;53.576;9.934;2023-02-28T04:10:49;24.70;;;10.60;;
4317;SDS011;2172;53.576;9.934;2023-02-28T04:13:20;19.43;;;12.60;;
4317;SDS011;2172;53.576;9.934;2023-02-28T04:15:47;24.83;;;13.60;;
4317;SDS011;2172;53.576;9.934;2023-02-28T04:18:15;22.87;;;12.90;;
4317;SDS011;2172;53.576;9.934;2023-02-28T04:20:43;20.83;;;11.90;;
4317;SDS011;2172;53.576;9.934;2023-02-28T04:23:10;22.20;;;12.60;;
4317;SDS011;2172;53.576;9.934;2023-02-28T04:25:39;19.40;;;12.00;;
4317;SDS011;2172;53.576;9.934;2023-02-28T04:28:07;21.37;;;10.83;;
4317;SDS011;2172;53.576;9.934;2023-02-28T04:30:34;14.20;;;9.97;;
4317;SDS011;2172;53.576;9.934;2023-02-28T04:33:03;13.17;;;9.37;;
4317;SDS011;2172;53.576;9.934;2023-02-28T04:35:31;10.80;;;8.33;;
4317;SDS011;2172;53.576;9.934;2023-02-28T04:37:58;19.30;;;11.13;;
4317;SDS011;2172;53.576;9.934;2023-02-28T04:40:25;15.43;;;10.00;;
4317;SDS011;2172;53.576;9.934;2023-02-28T04:42:54;14.47;;;9.60;;
4317;SDS011;2172;53.576;9.934;2023-02-28T04:45:22;14.70;;;9.43;;
4317;SDS011;2172;53.576;9.934;2023-02-28T04:47:49;15.03;;;8.33;;
4317;SDS011;2172;53.576;9.934;2023-02-28T04:50:17;20.10;;;10.27;;
4317;SDS011;2172;53.576;9.934;2023-02-28T04:52:44;16.50;;;8.70;;
4317;SDS011;2172;53.576;9.934;2023-02-28T04:55:12;20.00;;;8.70;;
4317;SDS011;2172;53.576;9.934;2023-02-28T04:57:39;16.00;;;9.10;;
4317;SDS011;2172;53.576;9.934;2023-02-28T05:00:09;13.10;;;8.23;;
4317;SDS011;2172;53.576;9.934;2023-02-28T05:02:42;17.47;;;8.93;;
4317;SDS011;2172;53.576;9.934;2023-02-28T05:05:09;17.13;;;9.33;;
4317;SDS011;2172;53.576;9.934;2023-02-28T05:07:41;14.50;;;8.13;;
4317;SDS011;2172;53.576;9.934;2023-02-28T05:10:10;14.97;;;8.20;;
4317;SDS011;2172;53.576;9.934;2023-02-28T05:12:38;14.03;;;8.80;;
4317;SDS011;2172;53.576;9.934;2023-02-28T05:15:07;14.80;;;7.90;;
4317;SDS011;2172;53.576;9.934;2023-02-28T05:17:37;10.20;;;8.40;;
4317;SDS011;2172;53.576;9.934;2023-02-28T05:20:05;16.60;;;8.80;;
4317;SDS011;2172;53.576;9.934;2023-02-28T05:22:35;15.20;;;8.67;;
4317;SDS011;2172;53.576;9.934;2023-02-28T05:25:04;16.30;;;8.33;;
4317;SDS011;2172;53.576;9.934;2023-02-28T05:27:32;17.13;;;10.10;;
4317;SDS011;2172;53.576;9.934;2023-02-28T05:29:59;15.27;;;8.93;;
4317;SDS011;2172;53.576;9.934;2023-02-28T05:32:30;14.53;;;9.07;;
4317;SDS011;2172;53.576;9.934;2023-02-28T05:34:58;13.50;;;9.00;;
4317;SDS011;2172;53.576;9.934;2023-02-28T05:37:26;29.77;;;11.27;;
4317;SDS011;2172;53.576;9.934;2023-02-28T05:39:53;25.70;;;12.27;;
4317;SDS011;2172;53.576;9.934;2023-02-28T05:42:20;24.13;;;11.17;;
4317;SDS011;2172;53.576;9.934;2023-02-28T05:44:48;20.53;;;10.93;;
4317;SDS011;2172;53.576;9.934;2023-02-28T05:47:17;20.53;;;11.00;;
4317;SDS011;2172;53.576;9.934;2023-02-28T05:49:45;12.73;;;9.63;;
4317;SDS011;2172;53.576;9.934;2023-02-28T05:52:13;19.30;;;8.90;;
4317;SDS011;2172;53.576;9.934;2023-02-28T05:54:40;14.27;;;9.83;;
4317;SDS011;2172;53.576;9.934;2023-02-28T05:57:08;12.60;;;8.50;;
4317;SDS011;2172;53.576;9.934;2023-02-28T05:59:35;20.47;;;8.90;;
4317;SDS011;2172;53.576;9.934;2023-02-28T06:02:05;20.30;;;10.13;;
4317;SDS011;2172;53.576;9.934;2023-02-28T06:04:33;15.87;;;10.30;;
4317;SDS011;2172;53.576;9.934;2023-02-28T06:07:02;16.07;;;10.27;;
4317;SDS011;2172;53.576;9.934;2023-02-28T06:09:29;16.40;;;9.90;;
4317;SDS011;2172;53.576;9.934;2023-02-28T06:11:57;18.07;;;10.13;;
4317;SDS011;2172;53.576;9.934;2023-02-28T06:14:25;23.30;;;12.97;;
4317;SDS011;2172;53.576;9.934;2023-02-28T06:16:52;22.17;;;14.30;;
4317;SDS011;2172;53.576;9.934;2023-02-28T06:19:20;23.00;;;11.70;;
4317;SDS011;2172;53.576;9.934;2023-02-28T06:21:50;16.80;;;10.43;;
4317;SDS011;2172;53.576;9.934;2023-02-28T06:24:20;20.50;;;12.90;;
4317;SDS011;2172;53.576;9.934;2023-02-28T06:26:47;24.80;;;12.87;;
4317;SDS011;2172;53.576;9.934;2023-02-28T06:29:15;24.73;;;13.40;;
4317;SDS011;2172;53.576;9.934;2023-02-28T06:31:43;19.17;;;11.10;;
4317;SDS011;2172;53.576;9.934;2023-02-28T06:34:11;19.00;;;11.17;;
4317;SDS011;2172;53.576;9.934;2023-02-28T06:36:38;19.73;;;11.83;;
4317;SDS011;2172;53.576;9.934;2023-02-28T06:39:07;24.60;;;12.33;;
4317;SDS011;2172;53.576;9.934;2023-02-28T06:41:36;26.07;;;12.60;;
4317;SDS011;2172;53.576;9.934;2023-02-28T06:44:08;25.13;;;11.70;;
4317;SDS011;2172;53.576;9.934;2023-02-28T06:46:39;23.13;;;11.77;;
4317;SDS011;2172;53.576;9.934;2023-02-28T06:49:06;24.03;;;12.90;;
4317;SDS011;2172;53.576;9.934;2023-02-28T06:51:35;23.80;;;10.80;;
4317;SDS011;2172;53.576;9.934;2023-02-28T06:54:04;29.27;;;10.90;;
4317;SDS011;2172;53.576;9.934;2023-02-28T06:56:34;16.60;;;11.07;;
4317;SDS011;2172;53.576;9.934;2023-02-28T06:59:03;22.47;;;11.07;;
4317;SDS011;2172;53.576;9.934;2023-02-28T07:01:31;27.33;;;11.33;;
4317;SDS011;2172;53.576;9.934;2023-02-28T07:03:59;21.00;;;12.43;;
4317;SDS011;2172;53.576;9.934;2023-02-28T07:06:27;22.17;;;11.10;;
4317;SDS011;2172;53.576;9.934;2023-02-28T07:08:55;24.43;;;13.00;;
4317;SDS011;2172;53.576;9.934;2023-02-28T07:11:23;32.43;;;11.80;;
4317;SDS011;2172;53.576;9.934;2023-02-28T07:13:53;34.70;;;13.80;;
4317;SDS011;2172;53.576;9.934;2023-02-28T07:16:23;23.20;;;12.30;;
4317;SDS011;2172;53.576;9.934;2023-02-28T07:18:52;20.63;;;12.50;;
4317;SDS011;2172;53.576;9.934;2023-02-28T07:21:20;19.53;;;11.47;;
4317;SDS011;2172;53.576;9.934;2023-02-28T07:23:48;23.03;;;13.43;;
4317;SDS011;2172;53.576;9.934;2023-02-28T07:26:16;21.30;;;11.97;;
4317;SDS011;2172;53.576;9.934;2023-02-28T07:28:45;28.07;;;12.57;;
4317;SDS011;2172;53.576;9.934;2023-02-28T07:31:15;24.83;;;12.47;;
4317;SDS011;2172;53.576;9.934;2023-02-28T07:33:43;18.20;;;12.13;;
4317;SDS011;2172;53.576;9.934;2023-02-28T07:36:12;20.10;;;11.97;;
4317;SDS011;2172;53.576;9.934;2023-02-28T07:38:42;18.67;;;10.80;;
4317;SDS011;2172;53.576;9.934;2023-02-28T07:41:11;19.87;;;10.70;;
4317;SDS011;2172;53.576;9.934;2023-02-28T07:43:38;20.10;;;9.70;;
4317;SDS011;2172;53.576;9.934;2023-02-28T07:46:07;20.90;;;11.90;;
4317;SDS011;2172;53.576;9.934;2023-02-28T07:48:37;14.00;;;8.30;;
4317;SDS011;2172;53.576;9.934;2023-02-28T07:51:05;15.77;;;9.13;;
4317;SDS011;2172;53.576;9.934;2023-02-28T07:53:32;13.17;;;8.23;;
4317;SDS011;2172;53.576;9.934;2023-02-28T07:56:00;16.67;;;8.10;;
4317;SDS011;2172;53.576;9.934;2023-02-28T07:58:31;11.70;;;8.90;;
4317;SDS011;2172;53.576;9.934;2023-02-28T08:01:04;11.43;;;7.00;;
4317;SDS011;2172;53.576;9.934;2023-02-28T08:03:32;21.77;;;7.93;;
4317;SDS011;2172;53.576;9.934;2023-02-28T08:06:02;9.97;;;7.47;;
4317;SDS011;2172;53.576;9.934;2023-02-28T08:08:29;14.73;;;7.80;;
4317;SDS011;2172;53.576;9.934;2023-02-28T08:10:58;12.87;;;7.70;;
4317;SDS011;2172;53.576;9.934;2023-02-28T08:13:26;9.03;;;5.43;;
4317;SDS011;2172;53.576;9.934;2023-02-28T08:15:54;6.53;;;4.87;;
4317;SDS011;2172;53.576;9.934;2023-02-28T08:18:21;6.27;;;4.93;;
4317;SDS011;2172;53.576;9.934;2023-02-28T08:20:49;6.40;;;3.77;;
4317;SDS011;2172;53.576;9.934;2023-02-28T08:23:18;6.53;;;3.50;;
4317;SDS011;2172;53.576;9.934;2023-02-28T08:25:52;4.23;;;2.90;;
4317;SDS011;2172;53.576;9.934;2023-02-28T08:28:20;5.33;;;2.83;;
4317;SDS011;2172;53.576;9.934;2023-02-28T08:30:48;4.97;;;3.33;;
4317;SDS011;2172;53.576;9.934;2023-02-28T08:33:15;4.73;;;3.23;;
4317;SDS011;2172;53.576;9.934;2023-02-28T08:35:43;7.87;;;3.07;;
4317;SDS011;2172;53.576;9.934;2023-02-28T08:38:10;5.50;;;3.17;;
4317;SDS011;2172;53.576;9.934;2023-02-28T08:40:39;4.63;;;2.60;;
4317;SDS011;2172;53.576;9.934;2023-02-28T08:43:08;4.20;;;2.33;;
4317;SDS011;2172;53.576;9.934;2023-02-28T08:45:35;4.10;;;2.57;;
4317;SDS011;2172;53.576;9.934;2023-02-28T08:48:03;4.37;;;2.20;;
4317;SDS011;2172;53.576;9.934;2023-02-28T08:50:31;4.50;;;2.13;;
4317;SDS011;2172;53.576;9.934;2023-02-28T08:52:58;3.90;;;2.40;;
4317;SDS011;2172;53.576;9.934;2023-02-28T08:55:26;3.07;;;1.80;;
4317;SDS011;2172;53.576;9.934;2023-02-28T08:57:55;3.40;;;1.90;;
4317;SDS011;2172;53.576;9.934;2023-02-28T09:00:23;3.27;;;2.30;;
4317;SDS011;2172;53.576;9.934;2023-02-28T09:02:51;2.83;;;1.80;;
4317;SDS011;2172;53.576;9.934;2023-02-28T09:05:19;2.97;;;1.90;;
4317;SDS011;2172;53.576;9.934;2023-02-28T09:07:49;2.50;;;1.80;;
4317;SDS011;2172;53.576;9.934;2023-02-28T09:10:16;7.43;;;1.63;;
4317;SDS011;2172;53.576;9.934;2023-02-28T13:33:04;7.57;;;4.03;;
4317;SDS011;2172;53.576;9.934;2023-02-28T13:36:12;8.67;;;4.23;;
4317;SDS011;2172;53.576;9.934;2023-02-28T13:46:03;4.60;;;3.20;;
4317;SDS011;2172;53.576;9.934;2023-02-28T13:52:21;6.97;;;3.60;;
4317;SDS011;2172;53.576;9.934;2023-02-28T13:55:34;4.93;;;3.33;;
4317;SDS011;2172;53.576;9.934;2023-02-28T13:59:21;5.27;;;4.30;;
4317;SDS011;2172;53.576;9.934;2023-02-28T14:04:46;7.30;;;3.10;;
4317;SDS011;2172;53.576;9.934;2023-02-28T14:07:29;4.83;;;2.87;;
4317;SDS011;2172;53.576;9.934;2023-02-28T14:09:59;5.00;;;3.40;;
4317;SDS011;2172;53.576;9.934;2023-02-28T14:15:30;6.87;;;3.50;;
4317;SDS011;2172;53.576;9.934;2023-02-28T14:18:11;7.63;;;4.07;;
4317;SDS011;2172;53.576;9.934;2023-02-28T14:20:49;7.20;;;3.63;;
4317;SDS011;2172;53.576;9.934;2023-02-28T14:23:29;5.40;;;3.80;;
4317;SDS011;2172;53.576;9.934;2023-02-28T14:26:07;11.80;;;3.97;;
4317;SDS011;2172;53.576;9.934;2023-02-28T14:28:48;5.00;;;3.83;;
4317;SDS011;2172;53.576;9.934;2023-02-28T14:31:23;3.27;;;2.97;;
4317;SDS011;2172;53.576;9.934;2023-02-28T14:33:59;5.30;;;3.10;;
4317;SDS011;2172;53.576;9.934;2023-02-28T14:36:40;6.43;;;3.40;;
4317;SDS011;2172;53.576;9.934;2023-02-28T14:39:12;6.17;;;4.07;;
4317;SDS011;2172;53.576;9.934;2023-02-28T14:41:42;9.57;;;6.47;;
4317;SDS011;2172;53.576;9.934;2023-02-28T14:44:14;5.07;;;3.20;;
4317;SDS011;2172;53.576;9.934;2023-02-28T14:46:44;4.60;;;3.67;;
4317;SDS011;2172;53.576;9.934;2023-02-28T14:49:13;4.67;;;3.53;;
4317;SDS011;2172;53.576;9.934;2023-02-28T14:52:01;9.37;;;3.17;;
4317;SDS011;2172;53.576;9.934;2023-02-28T14:54:32;6.83;;;3.80;;
4317;SDS011;2172;53.576;9.934;2023-02-28T14:57:00;4.43;;;3.40;;
4317;SDS011;2172;53.576;9.934;2023-02-28T14:59:28;3.97;;;3.53;;
4317;SDS011;2172;53.576;9.934;2023-02-28T15:02:19;5.10;;;3.80;;
4317;SDS011;2172;53.576;9.934;2023-02-28T15:04:55;4.50;;;3.43;;
4317;SDS011;2172;53.576;9.934;2023-02-28T15:07:24;7.30;;;3.60;;
4317;SDS011;2172;53.576;9.934;2023-02-28T15:10:10;6.13;;;3.30;;
4317;SDS011;2172;53.576;9.934;2023-02-28T15:12:44;4.73;;;3.23;;
4317;SDS011;2172;53.576;9.934;2023-02-28T15:15:16;4.97;;;3.50;;
4317;SDS011;2172;53.576;9.934;2023-02-28T15:17:46;6.50;;;3.87;;
4317;SDS011;2172;53.576;9.934;2023-02-28T15:20:16;5.73;;;3.53;;
4317;SDS011;2172;53.576;9.934;2023-02-28T15:22:44;8.00;;;3.73;;
4317;SDS011;2172;53.576;9.934;2023-02-28T15:25:15;5.47;;;3.40;;
4317;SDS011;2172;53.576;9.934;2023-02-28T15:27:46;4.77;;;3.77;;
4317;SDS011;2172;53.576;9.934;2023-02-28T15:30:16;5.67;;;3.63;;
4317;SDS011;2172;53.576;9.934;2023-02-28T15:32:45;5.90;;;3.63;;
4317;SDS011;2172;53.576;9.934;2023-02-28T15:35:31;8.73;;;4.33;;
4317;SDS011;2172;53.576;9.934;2023-02-28T15:38:00;6.30;;;4.27;;
4317;SDS011;2172;53.576;9.934;2023-02-28T15:40:31;4.60;;;3.67;;
4317;SDS011;2172;53.576;9.934;2023-02-28T15:43:03;8.13;;;3.80;;
4317;SDS011;2172;53.576;9.934;2023-02-28T15:45:33;5.90;;;3.70;;
4317;SDS011;2172;53.576;9.934;2023-02-28T15:48:04;7.37;;;4.60;;
4317;SDS011;2172;53.576;9.934;2023-02-28T15:50:32;6.73;;;3.67;;
4317;SDS011;2172;53.576;9.934;2023-02-28T15:52:59;9.50;;;3.50;;
4317;SDS011;2172;53.576;9.934;2023-02-28T15:55:28;5.57;;;3.53;;
4317;SDS011;2172;53.576;9.934;2023-02-28T15:58:00;4.80;;;3.43;;
4317;SDS011;2172;53.576;9.934;2023-02-28T16:00:29;9.83;;;3.40;;
4317;SDS011;2172;53.576;9.934;2023-02-28T16:02:57;11.97;;;4.70;;
4317;SDS011;2172;53.576;9.934;2023-02-28T16:05:26;4.73;;;3.70;;
4317;SDS011;2172;53.576;9.934;2023-02-28T16:07:56;9.30;;;3.50;;
4317;SDS011;2172;53.576;9.934;2023-02-28T16:10:25;8.33;;;4.73;;
4317;SDS011;2172;53.576;9.934;2023-02-28T16:12:55;4.73;;;3.77;;
4317;SDS011;2172;53.576;9.934;2023-02-28T16:15:24;6.03;;;3.80;;
4317;SDS011;2172;53.576;9.934;2023-02-28T16:17:55;8.80;;;3.80;;
4317;SDS011;2172;53.576;9.934;2023-02-28T16:20:24;8.10;;;3.23;;
4317;SDS011;2172;53.576;9.934;2023-02-28T16:23:11;7.13;;;3.50;;
4317;SDS011;2172;53.576;9.934;2023-02-28T16:25:39;7.30;;;3.63;;
4317;SDS011;2172;53.576;9.934;2023-02-28T16:28:12;6.43;;;3.80;;
4317;SDS011;2172;53.576;9.934;2023-02-28T16:30:44;5.07;;;3.07;;
4317;SDS011;2172;53.576;9.934;2023-02-28T16:33:12;6.00;;;4.10;;
4317;SDS011;2172;53.576;9.934;2023-02-28T16:35:39;7.90;;;3.67;;
4317;SDS011;2172;53.576;9.934;2023-02-28T16:38:07;5.17;;;3.40;;
4317;SDS011;2172;53.576;9.934;2023-02-28T16:40:35;4.87;;;3.50;;
4317;SDS011;2172;53.576;9.934;2023-02-28T16:43:04;6.70;;;3.80;;
4317;SDS011;2172;53.576;9.934;2023-02-28T16:45:36;6.90;;;3.53;;
4317;SDS011;2172;53.576;9.934;2023-02-28T16:48:03;14.33;;;4.53;;
4317;SDS011;2172;53.576;9.934;2023-02-28T16:50:31;12.20;;;3.60;;
4317;SDS011;2172;53.576;9.934;2023-02-28T16:52:58;6.53;;;4.20;;
4317;SDS011;2172;53.576;9.934;2023-02-28T16:55:26;6.27;;;3.13;;
4317;SDS011;2172;53.576;9.934;2023-02-28T16:57:55;6.60;;;3.60;;
4317;SDS011;2172;53.576;9.934;2023-02-28T17:00:25;6.93;;;3.83;;
4317;SDS011;2172;53.576;9.934;2023-02-28T17:02:54;7.00;;;4.00;;
4317;SDS011;2172;53.576;9.934;2023-02-28T17:05:22;7.57;;;4.07;;
4317;SDS011;2172;53.576;9.934;2023-02-28T17:07:50;14.53;;;8.50;;
4317;SDS011;2172;53.576;9.934;2023-02-28T17:10:18;12.07;;;5.20;;
4317;SDS011;2172;53.576;9.934;2023-02-28T17:12:48;9.60;;;4.23;;
4317;SDS011;2172;53.576;9.934;2023-02-28T17:15:16;13.73;;;3.90;;
4317;SDS011;2172;53.576;9.934;2023-02-28T17:17:45;7.30;;;4.40;;
4317;SDS011;2172;53.576;9.934;2023-02-28T17:20:15;8.77;;;4.13;;
4317;SDS011;2172;53.576;9.934;2023-02-28T17:22:43;7.50;;;3.63;;
4317;SDS011;2172;53.576;9.934;2023-02-28T17:25:11;9.13;;;3.73;;
4317;SDS011;2172;53.576;9.934;2023-02-28T17:27:38;7.37;;;3.87;;
4317;SDS011;2172;53.576;9.934;2023-02-28T17:30:09;11.03;;;4.30;;
4317;SDS011;2172;53.576;9.934;2023-02-28T17:32:41;6.50;;;4.40;;
4317;SDS011;2172;53.576;9.934;2023-02-28T17:35:09;9.03;;;4.10;;
4317;SDS011;2172;53.576;9.934;2023-02-28T17:37:38;9.73;;;4.63;;
4317;SDS011;2172;53.576;9.934;2023-02-28T17:40:06;13.30;;;6.10;;
4317;SDS011;2172;53.576;9.934;2023-02-28T17:42:37;34.43;;;22.60;;
4317;SDS011;2172;53.576;9.934;2023-02-28T17:45:05;18.57;;;10.23;;
4317;SDS011;2172;53.576;9.934;2023-02-28T17:47:33;22.07;;;13.17;;
4317;SDS011;2172;53.576;9.934;2023-02-28T17:50:00;24.40;;;12.67;;
4317;SDS011;2172;53.576;9.934;2023-02-28T17:52:28;26.57;;;13.07;;
4317;SDS011;2172;53.576;9.934;2023-02-28T17:54:57;21.00;;;9.93;;
4317;SDS011;2172;53.576;9.934;2023-02-28T17:57:25;13.97;;;7.17;;
4317;SDS011;2172;53.576;9.934;2023-02-28T17:59:52;18.30;;;9.37;;
4317;SDS011;2172;53.576;9.934;2023-02-28T18:02:20;21.30;;;9.83;;
4317;SDS011;2172;53.576;9.934;2023-02-28T18:04:47;14.23;;;7.23;;
4317;SDS011;2172;53.576;9.934;2023-02-28T18:07:15;14.13;;;6.30;;
4317;SDS011;2172;53.576;9.934;2023-02-28T18:09:43;19.27;;;7.50;;
4317;SDS011;2172;53.576;9.934;2023-02-28T18:12:11;20.10;;;8.00;;
4317;SDS011;2172;53.576;9.934;2023-02-28T18:14:39;8.37;;;5.17;;
4317;SDS011;2172;53.576;9.934;2023-02-28T18:17:08;11.50;;;5.10;;
4317;SDS011;2172;53.576;9.934;2023-02-28T18:19:37;6.57;;;4.10;;
4317;SDS011;2172;53.576;9.934;2023-02-28T18:22:04;8.60;;;4.70;;
4317;SDS011;2172;53.576;9.934;2023-02-28T18:24:33;10.83;;;5.50;;
4317;SDS011;2172;53.576;9.934;2023-02-28T18:27:01;9.60;;;5.40;;
4317;SDS011;2172;53.576;9.934;2023-02-28T18:29:30;12.47;;;5.63;;
4317;SDS011;2172;53.576;9.934;2023-02-28T18:31:57;13.00;;;5.80;;
4317;SDS011;2172;53.576;9.934;2023-02-28T18:34:26;10.30;;;5.83;;
4317;SDS011;2172;53.576;9.934;2023-02-28T18:36:54;19.20;;;6.67;;
4317;SDS011;2172;53.576;9.934;2023-02-28T18:39:22;8.93;;;5.33;;
4317;SDS011;2172;53.576;9.934;2023-02-28T18:41:49;14.80;;;5.70;;
4317;SDS011;2172;53.576;9.934;2023-02-28T18:44:37;19.40;;;6.67;;
4317;SDS011;2172;53.576;9.934;2023-02-28T18:47:04;12.70;;;6.43;;
4317;SDS011;2172;53.576;9.934;2023-02-28T18:49:32;14.23;;;5.60;;
4317;SDS011;2172;53.576;9.934;2023-02-28T18:52:01;11.57;;;6.13;;
4317;SDS011;2172;53.576;9.934;2023-02-28T18:54:29;10.40;;;5.80;;
4317;SDS011;2172;53.576;9.934;2023-02-28T18:56:56;11.30;;;7.00;;
4317;SDS011;2172;53.576;9.934;2023-02-28T18:59:24;11.83;;;7.07;;
4317;SDS011;2172;53.576;9.934;2023-02-28T19:01:54;19.37;;;8.43;;
4317;SDS011;2172;53.576;9.934;2023-02-28T19:04:22;12.47;;;8.30;;
4317;SDS011;2172;53.576;9.934;2023-02-28T19:06:50;17.00;;;9.13;;
4317;SDS011;2172;53.576;9.934;2023-02-28T19:09:17;15.27;;;9.30;;
4317;SDS011;2172;53.576;9.934;2023-02-28T19:11:45;16.73;;;8.60;;
4317;SDS011;2172;53.576;9.934;2023-02-28T19:14:12;12.50;;;7.73;;
4317;SDS011;2172;53.576;9.934;2023-02-28T19:16:40;17.23;;;8.40;;
4317;SDS011;2172;53.576;9.934;2023-02-28T19:19:09;15.43;;;8.40;;
4317;SDS011;2172;53.576;9.934;2023-02-28T19:21:36;15.20;;;8.17;;
4317;SDS011;2172;53.576;9.934;2023-02-28T19:24:04;13.57;;;7.93;;
4317;SDS011;2172;53.576;9.934;2023-02-28T19:26:31;22.67;;;10.43;;
4317;SDS011;2172;53.576;9.934;2023-02-28T19:29:00;12.77;;;7.67;;
4317;SDS011;2172;53.576;9.934;2023-02-28T19:31:28;13.40;;;8.10;;
4317;SDS011;2172;53.576;9.934;2023-02-28T19:33:56;12.13;;;7.90;;
4317;SDS011;2172;53.576;9.934;2023-02-28T19:36:25;13.43;;;8.50;;
4317;SDS011;2172;53.576;9.934;2023-02-28T19:38:52;17.47;;;8.70;;
4317;SDS011;2172;53.576;9.934;2023-02-28T19:41:20;19.27;;;12.43;;
4317;SDS011;2172;53.576;9.934;2023-02-28T19:43:48;17.33;;;9.27;;
4317;SDS011;2172;53.576;9.934;2023-02-28T19:46:17;26.27;;;14.37;;
4317;SDS011;2172;53.576;9.934;2023-02-28T19:48:45;28.00;;;15.47;;
4317;SDS011;2172;53.576;9.934;2023-02-28T19:51:13;26.60;;;13.57;;
4317;SDS011;2172;53.576;9.934;2023-02-28T19:53:43;23.60;;;14.47;;
4317;SDS011;2172;53.576;9.934;2023-02-28T19:56:10;22.80;;;13.57;;
4317;SDS011;2172;53.576;9.934;2023-02-28T19:58:39;24.77;;;14.50;;
4317;SDS011;2172;53.576;9.934;2023-02-28T20:01:07;38.93;;;23.90;;
4317;SDS011;2172;53.576;9.934;2023-02-28T20:03:35;27.00;;;15.73;;
4317;SDS011;2172;53.576;9.934;2023-02-28T20:06:04;20.60;;;14.40;;
4317;SDS011;2172;53.576;9.934;2023-02-28T20:08:34;22.70;;;13.20;;
4317;SDS011;2172;53.576;9.934;2023-02-28T20:11:03;18.73;;;11.40;;